Time;durP1;ratioP1;P1;durP2;ratioP2;P2;SDS_P1;SDS_P2;PMS_P1;PMS_P2;Temp;Humidity;BMP_temperature;BMP_pressure;BME280_temperature;BME280_humidity;BME280_pressure;Samples;Min_cycle;Max_cycle;Signal;HPM_P1;HPM_P2
2023/04/12 00:02:07;;;;;;;;;;;7.00;99.90;;;;;;5073650;28;19924;-87
2023/04/12 00:04:34;;;;;;;;;;;7.10;99.90;;;;;;5080524;28;19924;-87
2023/04/12 00:07:03;;;;;;;;;;;7.10;99.90;;;;;;5123921;27;19924;-88
2023/04/12 00:09:29;;;;;;;;;;;7.10;99.90;;;;;;5092002;28;19928;-87
2023/04/12 00:11:56;;;;;;;;;;;7.10;99.90;;;;;;5094616;28;20029;-88
2023/04/12 00:14:22;;;;;;;;;;;7.20;99.90;;;;;;5087398;28;19936;-87
2023/04/12 00:16:50;;;;;;;;;;;7.00;99.90;;;;;;5084307;28;20298;-87
2023/04/12 00:19:16;;;;;;;;;;;8.50;99.90;;;;;;5073105;28;19969;-88
2023/04/12 00:21:45;;;;;;;;;;;7.40;99.90;;;;;;5082489;28;20006;-87
2023/04/12 00:24:11;;;;;;;;;;;7.40;99.90;;;;;;5091974;28;20061;-87
2023/04/12 00:26:37;;;;;;;;;;;7.00;99.90;;;;;;5108394;28;19924;-87
2023/04/12 00:29:03;;;;;;;;;;;7.00;99.90;;;;;;5092398;28;19935;-87
2023/04/12 00:31:28;;;;;;;;;;;7.00;99.90;;;;;;5092266;28;19932;-88
2023/04/12 00:33:54;;;;;;;;;;;7.00;99.90;;;;;;5077298;28;19924;-87
2023/04/12 00:36:22;;;;;;;;;;;7.00;99.90;;;;;;5091143;28;19932;-87
2023/04/12 00:38:48;;;;;;;;;;;7.00;99.90;;;;;;5084376;28;19960;-87
2023/04/12 00:41:13;;;;;;;;;;;7.10;99.90;;;;;;5094440;28;19966;-88
2023/04/12 00:43:40;;;;;;;;;;;7.20;99.90;;;;;;5099446;28;19930;-87
2023/04/12 00:46:08;;;;;;;;;;;7.10;99.90;;;;;;5079406;28;20198;-87
2023/04/12 00:48:35;;;;;;;;;;;7.00;99.90;;;;;;5092962;28;20387;-88
2023/04/12 00:51:02;;;;;;;;;;;6.30;99.90;;;;;;5075029;28;20434;-87
2023/04/12 00:53:28;;;;;;;;;;;7.10;99.90;;;;;;5096379;28;19928;-88
2023/04/12 00:55:54;;;;;;;;;;;7.20;99.90;;;;;;5088097;28;20437;-88
2023/04/12 00:58:20;;;;;;;;;;;7.60;99.90;;;;;;5095949;28;20318;-87
2023/04/12 01:00:51;;;;;;;;;;;7.20;99.90;;;;;;5088492;28;19974;-88
2023/04/12 01:03:26;;;;;;;;;;;5.80;99.90;;;;;;5097350;28;19967;-87
2023/04/12 01:05:58;;;;;;;;;;;7.30;99.90;;;;;;5070580;28;21386;-87
2023/04/12 01:08:33;;;;;;;;;;;7.70;99.90;;;;;;5088232;28;20334;-88
2023/04/12 01:11:11;;;;;;;;;;;7.30;99.90;;;;;;5134914;27;20449;-87
2023/04/12 01:13:40;;;;;;;;;;;7.30;99.90;;;;;;5083908;28;19973;-87
2023/04/12 01:16:25;;;;;;;;;;;7.40;99.90;;;;;;5097722;28;20033;-87
2023/04/12 01:18:52;;;;;;;;;;;5.60;99.90;;;;;;5099032;28;19928;-87
2023/04/12 01:21:23;;;;;;;;;;;7.40;99.90;;;;;;5098099;28;19928;-87
2023/04/12 01:24:07;;;;;;;;;;;7.30;99.90;;;;;;5099419;28;20014;-87
2023/04/12 01:26:49;;;;;;;;;;;7.50;99.90;;;;;;5137368;27;19924;-87
2023/04/12 01:29:16;;;;;;;;;;;7.40;99.90;;;;;;5128217;27;19924;-86
2023/04/12 01:31:49;;;;;;;;;;;7.50;99.90;;;;;;5096798;28;19932;-87
2023/04/12 01:34:15;;;;;;;;;;;7.50;99.90;;;;;;5087609;28;19924;-86
2023/04/12 01:36:42;;;;;;;;;;;7.50;99.90;;;;;;5094742;28;19970;-87
2023/04/12 01:39:08;;;;;;;;;;;7.50;99.90;;;;;;5100080;28;19963;-87
2023/04/12 01:41:37;;;;;;;;;;;7.60;99.90;;;;;;5100181;28;19968;-87
2023/04/12 01:44:03;;;;;;;;;;;7.60;99.90;;;;;;5088207;28;19924;-87
2023/04/12 01:46:31;;;;;;;;;;;7.60;99.90;;;;;;5090781;28;19931;-86
2023/04/12 01:48:57;;;;;;;;;;;7.60;99.90;;;;;;5089334;28;19947;-87
2023/04/12 01:51:41;;;;;;;;;;;7.60;99.90;;;;;;5095362;28;19923;-86
2023/04/12 01:54:12;;;;;;;;;;;7.70;99.90;;;;;;5096384;28;19928;-87
2023/04/12 01:56:39;;;;;;;;;;;7.70;99.90;;;;;;5094038;28;19939;-86
2023/04/12 01:59:06;;;;;;;;;;;7.70;99.90;;;;;;5069225;28;20011;-87
2023/04/12 02:01:32;;;;;;;;;;;7.60;99.90;;;;;;5104349;28;19924;-87
2023/04/12 02:04:00;;;;;;;;;;;7.70;99.90;;;;;;5099019;28;19935;-87
2023/04/12 02:06:27;;;;;;;;;;;7.70;99.90;;;;;;5091472;28;20295;-86
2023/04/12 02:09:10;;;;;;;;;;;7.50;99.90;;;;;;5076818;28;19974;-87
2023/04/12 02:11:36;;;;;;;;;;;7.70;99.90;;;;;;5096336;28;20430;-86
2023/04/12 02:14:02;;;;;;;;;;;7.70;99.90;;;;;;5077835;28;19967;-87
2023/04/12 02:16:31;;;;;;;;;;;7.60;99.90;;;;;;5076982;28;20016;-86
2023/04/12 02:18:57;;;;;;;;;;;7.50;99.90;;;;;;5077360;28;20002;-86
2023/04/12 02:21:23;;;;;;;;;;;7.60;99.90;;;;;;5092231;28;20282;-86
2023/04/12 02:23:49;;;;;;;;;;;7.50;99.90;;;;;;5072034;28;20007;-86
2023/04/12 02:26:15;;;;;;;;;;;7.50;99.90;;;;;;5093271;28;19978;-87
2023/04/12 02:28:40;;;;;;;;;;;6.50;99.90;;;;;;5087590;28;19967;-87
2023/04/12 02:31:06;;;;;;;;;;;7.60;99.90;;;;;;5076970;28;19997;-87
2023/04/12 02:33:33;;;;;;;;;;;7.60;99.90;;;;;;5095815;28;20020;-87
2023/04/12 02:36:01;;;;;;;;;;;7.60;99.90;;;;;;5076439;28;20314;-87
2023/04/12 02:38:27;;;;;;;;;;;7.60;99.90;;;;;;5104253;28;20002;-86
2023/04/12 02:40:53;;;;;;;;;;;7.60;99.90;;;;;;5093534;28;19978;-87
2023/04/12 02:43:19;;;;;;;;;;;7.50;99.90;;;;;;5080891;28;19975;-87
2023/04/12 02:45:45;;;;;;;;;;;7.50;99.90;;;;;;5077475;28;19924;-86
2023/04/12 02:48:11;;;;;;;;;;;7.60;99.90;;;;;;5128256;27;20018;-87
2023/04/12 02:50:37;;;;;;;;;;;7.50;99.90;;;;;;5078860;28;20027;-86
2023/04/12 02:53:02;;;;;;;;;;;7.50;99.90;;;;;;5084171;28;19931;-87
2023/04/12 02:55:31;;;;;;;;;;;7.50;99.90;;;;;;5092828;28;19936;-86
2023/04/12 02:57:57;;;;;;;;;;;7.50;99.90;;;;;;5079640;28;19936;-86
2023/04/12 03:00:22;;;;;;;;;;;7.50;99.90;;;;;;5096499;28;19950;-86
2023/04/12 03:02:50;;;;;;;;;;;7.50;99.90;;;;;;5080820;28;19932;-86
2023/04/12 03:05:16;;;;;;;;;;;7.50;99.90;;;;;;5094434;28;20288;-87
2023/04/12 03:07:42;;;;;;;;;;;7.50;99.90;;;;;;5072461;28;19974;-87
2023/04/12 03:10:10;;;;;;;;;;;7.50;99.90;;;;;;5090302;28;19966;-86
2023/04/12 03:12:36;;;;;;;;;;;7.50;99.90;;;;;;5092377;28;20335;-87
2023/04/12 03:15:02;;;;;;;;;;;7.50;99.90;;;;;;5076921;28;19928;-86
2023/04/12 03:17:28;;;;;;;;;;;7.50;99.90;;;;;;5130858;27;20027;-86
2023/04/12 03:20:01;;;;;;;;;;;7.50;99.90;;;;;;5072707;28;19935;-87
2023/04/12 03:22:27;;;;;;;;;;;7.50;99.90;;;;;;5093854;28;19924;-87
2023/04/12 03:24:52;;;;;;;;;;;7.50;99.90;;;;;;5085599;28;20395;-87
2023/04/12 03:27:18;;;;;;;;;;;7.50;99.90;;;;;;5097907;28;19935;-87
2023/04/12 03:29:44;;;;;;;;;;;7.50;99.90;;;;;;5134607;27;20388;-87
2023/04/12 03:32:10;;;;;;;;;;;7.60;99.90;;;;;;5102192;28;19924;-86
2023/04/12 03:34:35;;;;;;;;;;;7.60;99.90;;;;;;5079104;28;20272;-86
2023/04/12 03:37:01;;;;;;;;;;;7.60;99.90;;;;;;5097224;28;20007;-85
2023/04/12 03:39:27;;;;;;;;;;;7.50;99.90;;;;;;5064700;28;20387;-86
2023/04/12 03:41:53;;;;;;;;;;;7.60;99.90;;;;;;5056623;28;19925;-86
2023/04/12 03:44:20;;;;;;;;;;;7.60;99.90;;;;;;5091541;28;19924;-87
2023/04/12 03:46:46;;;;;;;;;;;8.20;99.90;;;;;;5125884;27;20010;-87
2023/04/12 03:49:11;;;;;;;;;;;7.60;99.90;;;;;;5091868;28;20359;-87
2023/04/12 03:51:41;;;;;;;;;;;7.60;99.90;;;;;;5072833;28;19924;-87
2023/04/12 03:54:07;;;;;;;;;;;7.60;99.90;;;;;;5099035;28;20012;-87
2023/04/12 03:56:33;;;;;;;;;;;7.60;99.90;;;;;;5082085;28;20295;-86
2023/04/12 03:58:59;;;;;;;;;;;7.50;99.90;;;;;;5095629;28;20014;-87
2023/04/12 04:01:24;;;;;;;;;;;7.50;99.90;;;;;;5131066;27;20279;-87
2023/04/12 04:03:50;;;;;;;;;;;7.50;99.90;;;;;;5103093;28;19973;-86
2023/04/12 04:06:16;;;;;;;;;;;7.50;99.90;;;;;;5100654;28;19979;-87
2023/04/12 04:08:43;;;;;;;;;;;7.50;99.90;;;;;;5101608;28;19977;-87
2023/04/12 04:11:10;;;;;;;;;;;7.50;99.90;;;;;;5107824;27;20280;-86
2023/04/12 04:13:36;;;;;;;;;;;7.40;99.90;;;;;;5092191;28;19924;-87
2023/04/12 04:16:03;;;;;;;;;;;7.40;99.90;;;;;;5127975;27;20375;-86
2023/04/12 04:18:29;;;;;;;;;;;7.40;99.90;;;;;;5086941;28;19976;-87
2023/04/12 04:20:55;;;;;;;;;;;7.40;99.90;;;;;;5092788;28;19924;-87
2023/04/12 04:23:22;;;;;;;;;;;7.40;99.90;;;;;;5089059;28;20010;-87
2023/04/12 04:25:48;;;;;;;;;;;7.30;99.90;;;;;;5078256;28;20022;-87
2023/04/12 04:28:17;;;;;;;;;;;7.30;99.90;;;;;;5096111;28;20011;-86
2023/04/12 04:30:44;;;;;;;;;;;7.30;99.90;;;;;;5098430;28;19968;-86
2023/04/12 04:33:14;;;;;;;;;;;7.30;99.90;;;;;;5091800;28;20259;-86
2023/04/12 04:35:43;;;;;;;;;;;7.30;99.90;;;;;;5130460;27;20410;-85
2023/04/12 04:38:09;;;;;;;;;;;7.30;99.90;;;;;;5092657;28;19927;-85
2023/04/12 04:40:38;;;;;;;;;;;7.30;99.90;;;;;;5078594;28;19943;-85
2023/04/12 04:43:03;;;;;;;;;;;7.20;99.90;;;;;;5100871;28;19963;-85
2023/04/12 04:45:29;;;;;;;;;;;7.20;99.90;;;;;;5083499;28;20017;-86
2023/04/12 04:47:55;;;;;;;;;;;7.20;99.90;;;;;;5092536;28;19924;-85
2023/04/12 04:50:22;;;;;;;;;;;7.20;99.90;;;;;;5123579;27;19924;-85
2023/04/12 04:52:47;;;;;;;;;;;7.20;99.90;;;;;;5074474;28;19924;-85
2023/04/12 04:55:13;;;;;;;;;;;5.10;99.90;;;;;;5093100;28;19931;-85
2023/04/12 04:57:39;;;;;;;;;;;7.10;99.90;;;;;;5092173;28;19928;-85
2023/04/12 05:00:10;;;;;;;;;;;7.10;99.90;;;;;;5091294;28;19930;-85
2023/04/12 05:02:36;;;;;;;;;;;7.10;99.90;;;;;;5090928;28;19965;-85
2023/04/12 05:05:03;;;;;;;;;;;6.10;99.90;;;;;;5086554;28;19943;-85
2023/04/12 05:07:28;;;;;;;;;;;7.10;99.90;;;;;;5124714;27;19935;-85
2023/04/12 05:09:54;;;;;;;;;;;7.10;99.90;;;;;;5090466;28;19924;-85
2023/04/12 05:12:20;;;;;;;;;;;7.10;99.90;;;;;;5090836;28;19969;-84
2023/04/12 05:14:45;;;;;;;;;;;7.10;99.90;;;;;;5125510;27;19942;-84
2023/04/12 05:17:11;;;;;;;;;;;7.00;99.90;;;;;;5090854;28;20000;-85
2023/04/12 05:19:37;;;;;;;;;;;7.00;99.90;;;;;;5124852;27;19958;-84
2023/04/12 05:22:02;;;;;;;;;;;7.00;99.90;;;;;;5091213;28;20380;-84
2023/04/12 05:24:28;;;;;;;;;;;7.10;99.90;;;;;;5073010;28;20375;-84
2023/04/12 05:26:53;;;;;;;;;;;7.00;99.90;;;;;;5090607;28;19925;-86
2023/04/12 05:29:19;;;;;;;;;;;7.00;99.90;;;;;;5099116;28;20413;-86
2023/04/12 05:31:45;;;;;;;;;;;7.00;99.90;;;;;;5096876;28;19925;-86
2023/04/12 05:34:10;;;;;;;;;;;7.00;99.90;;;;;;5101401;28;19924;-86
2023/04/12 05:36:36;;;;;;;;;;;7.10;99.90;;;;;;5089507;28;19974;-85
2023/04/12 05:39:02;;;;;;;;;;;7.00;99.90;;;;;;5091494;28;19936;-84
2023/04/12 05:41:28;;;;;;;;;;;7.00;99.90;;;;;;5091341;28;19928;-85
2023/04/12 05:43:53;;;;;;;;;;;7.00;99.90;;;;;;5090680;28;20237;-83
2023/04/12 05:46:19;;;;;;;;;;;7.00;99.90;;;;;;5091171;28;20007;-86
2023/04/12 05:48:44;;;;;;;;;;;7.00;99.90;;;;;;5068651;28;19963;-86
2023/04/12 05:51:10;;;;;;;;;;;7.00;99.90;;;;;;5071868;28;19924;-86
2023/04/12 05:53:36;;;;;;;;;;;6.90;99.90;;;;;;5087507;28;19931;-85
2023/04/12 05:56:01;;;;;;;;;;;7.00;99.90;;;;;;5094227;28;19924;-86
2023/04/12 05:58:27;;;;;;;;;;;7.00;99.90;;;;;;5092291;28;19924;-86
2023/04/12 06:00:54;;;;;;;;;;;7.00;99.90;;;;;;5118574;27;19928;-85
2023/04/12 06:03:20;;;;;;;;;;;7.00;99.90;;;;;;5089404;28;19924;-86
2023/04/12 06:05:46;;;;;;;;;;;7.00;99.90;;;;;;5098448;28;20292;-85
2023/04/12 06:08:13;;;;;;;;;;;7.00;99.90;;;;;;5129842;27;19924;-85
2023/04/12 06:10:39;;;;;;;;;;;7.00;99.90;;;;;;5099584;28;19935;-85
2023/04/12 06:13:04;;;;;;;;;;;7.00;99.90;;;;;;5082580;28;20571;-85
2023/04/12 06:15:30;;;;;;;;;;;7.00;99.90;;;;;;5098203;28;19968;-88
2023/04/12 06:17:58;;;;;;;;;;;7.00;99.90;;;;;;5095019;28;19925;-85
2023/04/12 06:20:24;;;;;;;;;;;7.00;99.90;;;;;;5100749;28;19982;-86
2023/04/12 06:22:49;;;;;;;;;;;7.00;99.90;;;;;;5089797;28;20480;-86
2023/04/12 06:25:15;;;;;;;;;;;7.00;99.90;;;;;;5090869;28;20006;-86
2023/04/12 06:27:41;;;;;;;;;;;7.00;99.90;;;;;;5094820;28;19992;-85
2023/04/12 06:30:07;;;;;;;;;;;7.00;99.90;;;;;;5090367;28;19963;-85
2023/04/12 06:32:32;;;;;;;;;;;7.00;99.90;;;;;;5127856;27;20022;-85
2023/04/12 06:34:58;;;;;;;;;;;7.00;99.90;;;;;;5096691;28;19931;-85
2023/04/12 06:37:24;;;;;;;;;;;7.00;99.90;;;;;;5092378;28;20015;-85
2023/04/12 06:39:49;;;;;;;;;;;7.00;99.90;;;;;;5075391;28;19928;-85
2023/04/12 06:42:16;;;;;;;;;;;7.00;99.90;;;;;;5097504;28;19923;-84
2023/04/12 06:44:41;;;;;;;;;;;7.00;99.90;;;;;;5101922;28;19923;-84
2023/04/12 06:47:07;;;;;;;;;;;7.00;99.90;;;;;;5096953;28;19928;-85
2023/04/12 06:49:32;;;;;;;;;;;7.00;99.90;;;;;;5073529;28;19974;-86
2023/04/12 06:51:58;;;;;;;;;;;7.00;99.90;;;;;;5097136;28;19935;-85
2023/04/12 06:54:24;;;;;;;;;;;7.00;99.90;;;;;;5099344;28;19924;-85
2023/04/12 06:56:49;;;;;;;;;;;7.00;99.90;;;;;;5082282;28;19924;-85
2023/04/12 06:59:15;;;;;;;;;;;7.10;99.90;;;;;;5075609;28;20010;-86
2023/04/12 07:01:41;;;;;;;;;;;7.10;99.90;;;;;;5080595;28;19932;-86
2023/04/12 07:04:06;;;;;;;;;;;9.30;99.90;;;;;;5097543;28;19924;-85
2023/04/12 07:06:32;;;;;;;;;;;7.10;99.90;;;;;;5101099;28;19935;-85
2023/04/12 07:08:57;;;;;;;;;;;7.10;99.90;;;;;;5093438;28;20030;-85
2023/04/12 07:11:23;;;;;;;;;;;7.10;99.90;;;;;;5102807;28;19924;-85
2023/04/12 07:13:49;;;;;;;;;;;7.10;99.90;;;;;;5096477;28;19924;-85
2023/04/12 07:16:15;;;;;;;;;;;7.10;99.90;;;;;;5125604;27;19932;-85
2023/04/12 07:18:41;;;;;;;;;;;7.10;99.90;;;;;;5112599;27;19932;-85
2023/04/12 07:21:06;;;;;;;;;;;7.10;99.90;;;;;;5139030;27;20015;-87
2023/04/12 07:23:32;;;;;;;;;;;7.10;99.90;;;;;;5128305;27;19977;-86
2023/04/12 07:25:58;;;;;;;;;;;7.10;99.90;;;;;;5100946;28;19928;-86
2023/04/12 07:28:24;;;;;;;;;;;7.10;99.90;;;;;;5099101;28;19924;-86
2023/04/12 07:30:49;;;;;;;;;;;7.10;99.90;;;;;;5096367;28;20334;-86
2023/04/12 07:33:15;;;;;;;;;;;7.10;99.90;;;;;;5080270;28;19946;-88
2023/04/12 07:35:41;;;;;;;;;;;7.20;99.90;;;;;;5087715;28;19924;-86
2023/04/12 07:38:07;;;;;;;;;;;7.20;99.90;;;;;;5102089;28;19924;-85
2023/04/12 07:40:32;;;;;;;;;;;7.20;99.90;;;;;;5080561;28;19931;-86
2023/04/12 07:43:01;;;;;;;;;;;7.20;99.90;;;;;;5104134;28;19972;-86
2023/04/12 07:45:26;;;;;;;;;;;7.20;99.90;;;;;;5080367;28;19928;-86
2023/04/12 07:47:52;;;;;;;;;;;7.20;99.90;;;;;;5097491;28;19924;-86
2023/04/12 07:50:17;;;;;;;;;;;7.20;99.90;;;;;;5103064;28;19928;-86
2023/04/12 07:52:43;;;;;;;;;;;7.30;99.90;;;;;;5086453;28;20050;-86
2023/04/12 07:55:09;;;;;;;;;;;7.30;99.90;;;;;;5096818;28;20007;-85
2023/04/12 07:57:34;;;;;;;;;;;7.30;99.90;;;;;;5096192;28;19924;-86
2023/04/12 08:00:00;;;;;;;;;;;7.30;99.90;;;;;;5099272;28;19930;-86
2023/04/12 08:02:26;;;;;;;;;;;7.30;99.90;;;;;;5109116;28;19924;-86
2023/04/12 08:04:55;;;;;;;;;;;7.30;99.90;;;;;;5098864;28;20020;-86
2023/04/12 08:07:25;;;;;;;;;;;7.30;99.90;;;;;;5095212;28;19924;-86
2023/04/12 08:09:51;;;;;;;;;;;7.30;99.90;;;;;;5094636;28;19932;-84
2023/04/12 08:12:17;;;;;;;;;;;7.40;99.90;;;;;;5107658;28;19924;-86
2023/04/12 08:14:42;;;;;;;;;;;7.40;99.90;;;;;;5110004;28;19924;-86
2023/04/12 08:17:08;;;;;;;;;;;7.40;99.90;;;;;;5102646;28;19932;-86
2023/04/12 08:19:34;;;;;;;;;;;7.50;99.90;;;;;;5098363;28;20039;-86
2023/04/12 08:21:59;;;;;;;;;;;7.60;99.90;;;;;;5078456;28;19924;-86
2023/04/12 08:24:25;;;;;;;;;;;7.60;99.90;;;;;;5082747;28;19924;-86
2023/04/12 08:26:50;;;;;;;;;;;7.70;99.90;;;;;;5093966;28;19924;-86
2023/04/12 08:29:17;;;;;;;;;;;7.70;99.90;;;;;;5101688;28;19932;-86
2023/04/12 08:31:43;;;;;;;;;;;7.80;99.90;;;;;;5099257;28;19924;-85
2023/04/12 08:34:08;;;;;;;;;;;7.80;99.90;;;;;;5109205;28;19935;-87
2023/04/12 08:36:34;;;;;;;;;;;7.80;99.90;;;;;;5092577;28;20361;-86
2023/04/12 08:39:00;;;;;;;;;;;7.80;99.90;;;;;;5131504;27;19928;-86
2023/04/12 08:41:26;;;;;;;;;;;7.90;99.90;;;;;;5096443;28;19939;-85
2023/04/12 08:43:52;;;;;;;;;;;7.90;99.90;;;;;;5087119;28;19924;-86
2023/04/12 08:46:17;;;;;;;;;;;7.90;99.90;;;;;;5092735;28;19924;-86
2023/04/12 08:48:45;;;;;;;;;;;7.90;99.90;;;;;;5102771;28;20267;-86
2023/04/12 08:51:14;;;;;;;;;;;8.00;99.90;;;;;;5092351;28;19932;-86
2023/04/12 08:53:40;;;;;;;;;;;8.00;99.90;;;;;;5098957;28;20237;-86
2023/04/12 08:56:08;;;;;;;;;;;8.00;99.90;;;;;;5106887;28;19935;-86
2023/04/12 08:58:35;;;;;;;;;;;8.00;99.90;;;;;;5112014;28;19930;-86
2023/04/12 09:01:01;;;;;;;;;;;8.00;99.90;;;;;;5087042;28;19931;-85
2023/04/12 09:03:28;;;;;;;;;;;8.10;99.90;;;;;;5105583;28;19931;-85
2023/04/12 09:05:54;;;;;;;;;;;8.20;99.90;;;;;;5105736;28;19924;-86
2023/04/12 09:08:20;;;;;;;;;;;8.10;99.90;;;;;;5099229;28;20348;-86
2023/04/12 09:10:45;;;;;;;;;;;8.10;99.90;;;;;;5078697;28;20257;-86
2023/04/12 09:13:11;;;;;;;;;;;8.20;99.90;;;;;;5079769;28;19924;-86
2023/04/12 09:15:46;;;;;;;;;;;8.30;99.90;;;;;;5097969;28;20761;-86
2023/04/12 09:18:12;;;;;;;;;;;8.40;99.90;;;;;;5087265;28;19927;-85
2023/04/12 09:20:38;;;;;;;;;;;8.40;99.90;;;;;;5081814;28;19970;-86
2023/04/12 09:23:16;;;;;;;;;;;8.50;99.90;;;;;;5091489;28;19924;-86
2023/04/12 09:25:44;;;;;;;;;;;8.50;99.90;;;;;;5125492;27;20046;-86
2023/04/12 09:28:18;;;;;;;;;;;8.50;99.90;;;;;;5104247;28;19975;-86
2023/04/12 09:30:43;;;;;;;;;;;8.50;99.90;;;;;;5100732;28;19924;-86
2023/04/12 09:33:12;;;;;;;;;;;8.40;99.90;;;;;;5101186;28;20255;-86
2023/04/12 09:35:37;;;;;;;;;;;8.40;99.90;;;;;;5099472;28;19928;-86
2023/04/12 09:38:07;;;;;;;;;;;8.40;99.90;;;;;;5080371;28;19930;-86
2023/04/12 09:40:35;;;;;;;;;;;8.40;99.90;;;;;;5092270;28;20307;-87
2023/04/12 09:43:01;;;;;;;;;;;8.30;99.90;;;;;;5115301;28;19931;-86
2023/04/12 09:45:27;;;;;;;;;;;8.40;99.90;;;;;;5105459;28;19924;-86
2023/04/12 09:47:53;;;;;;;;;;;8.50;99.90;;;;;;5090714;28;19923;-86
2023/04/12 09:50:23;;;;;;;;;;;8.70;99.90;;;;;;5118009;27;19928;-86
2023/04/12 09:52:49;;;;;;;;;;;8.90;99.90;;;;;;5096665;28;19928;-86
2023/04/12 09:55:14;;;;;;;;;;;9.10;99.90;;;;;;5095864;28;20283;-85
2023/04/12 09:57:41;;;;;;;;;;;9.30;99.90;;;;;;5102143;28;19924;-86
2023/04/12 10:00:12;;;;;;;;;;;9.40;99.90;;;;;;5095935;28;20417;-86
2023/04/12 10:02:42;;;;;;;;;;;9.60;99.90;;;;;;5093332;28;19938;-85
2023/04/12 10:05:12;;;;;;;;;;;9.80;99.90;;;;;;5097105;28;20355;-86
2023/04/12 10:07:41;;;;;;;;;;;9.90;99.90;;;;;;5096564;28;20467;-85
2023/04/12 10:10:07;;;;;;;;;;;9.90;99.90;;;;;;5085155;28;19975;-86
2023/04/12 10:12:37;;;;;;;;;;;10.10;99.90;;;;;;5081294;28;19989;-86
2023/04/12 10:15:04;;;;;;;;;;;10.10;99.90;;;;;;5070765;28;19923;-86
2023/04/12 10:17:31;;;;;;;;;;;10.20;99.90;;;;;;5103361;28;19924;-86
2023/04/12 10:19:57;;;;;;;;;;;10.40;99.90;;;;;;5102599;28;19931;-85
2023/04/12 10:22:23;;;;;;;;;;;10.50;99.90;;;;;;5088836;28;20272;-86
2023/04/12 10:24:50;;;;;;;;;;;10.80;99.90;;;;;;5120246;27;19924;-87
2023/04/12 10:27:23;;;;;;;;;;;11.00;99.90;;;;;;5098045;28;20341;-86
2023/04/12 10:29:49;;;;;;;;;;;11.20;99.90;;;;;;5098777;28;19974;-86
2023/04/12 10:32:19;;;;;;;;;;;11.30;99.90;;;;;;5089944;28;19924;-86
2023/04/12 10:34:49;;;;;;;;;;;11.50;99.90;;;;;;5097007;28;19949;-85
2023/04/12 10:37:14;;;;;;;;;;;11.70;99.90;;;;;;5104299;28;19923;-86
2023/04/12 10:39:41;;;;;;;;;;;11.80;99.90;;;;;;5093946;28;19931;-85
2023/04/12 10:42:26;;;;;;;;;;;12.00;99.90;;;;;;5104887;28;19959;-86
2023/04/12 10:45:12;;;;;;;;;;;12.20;99.90;;;;;;5096077;28;19939;-85
2023/04/12 10:47:47;;;;;;;;;;;12.30;99.90;;;;;;5087667;28;20369;-85
2023/04/12 10:50:40;;;;;;;;;;;13.80;99.90;;;;;;5095225;28;19924;-86
2023/04/12 10:53:11;;;;;;;;;;;12.30;99.90;;;;;;5098264;28;20360;-86
2023/04/12 10:55:37;;;;;;;;;;;12.50;99.90;;;;;;5081140;28;19963;-87
2023/04/12 10:58:03;;;;;;;;;;;12.60;99.90;;;;;;5102475;28;19924;-86
2023/04/12 11:00:47;;;;;;;;;;;12.50;99.90;;;;;;5088420;28;19964;-87
2023/04/12 11:03:13;;;;;;;;;;;12.40;99.90;;;;;;5080990;28;20288;-87
2023/04/12 11:05:58;;;;;;;;;;;12.40;99.90;;;;;;5096793;28;19932;-87
2023/04/12 11:08:24;;;;;;;;;;;12.40;99.90;;;;;;5081114;28;19978;-86
2023/04/12 11:10:50;;;;;;;;;;;12.40;99.90;;;;;;5100483;28;20000;-86
2023/04/12 11:13:16;;;;;;;;;;;12.60;99.90;;;;;;5091335;28;20344;-86
2023/04/12 11:15:42;;;;;;;;;;;12.70;99.90;;;;;;5076093;28;19928;-86
2023/04/12 11:18:08;;;;;;;;;;;12.80;99.90;;;;;;5103468;28;20293;-87
2023/04/12 11:20:37;;;;;;;;;;;12.70;99.90;;;;;;5099085;28;20115;-87
2023/04/12 11:23:04;;;;;;;;;;;12.90;99.90;;;;;;5083141;28;19924;-87
2023/04/12 11:25:30;;;;;;;;;;;12.70;99.90;;;;;;5102961;28;19947;-87
2023/04/12 11:27:56;;;;;;;;;;;12.70;99.90;;;;;;5117524;27;20356;-87
2023/04/12 11:30:24;;;;;;;;;;;12.70;99.90;;;;;;5077778;28;20339;-87
2023/04/12 11:32:49;;;;;;;;;;;12.80;99.90;;;;;;5080205;28;19976;-86
2023/04/12 11:35:15;;;;;;;;;;;12.90;99.90;;;;;;5085111;28;19928;-87
2023/04/12 11:37:42;;;;;;;;;;;13.00;99.90;;;;;;5110638;28;19928;-87
2023/04/12 11:40:08;;;;;;;;;;;13.00;99.90;;;;;;5103013;28;19953;-86
2023/04/12 11:42:34;;;;;;;;;;;13.10;99.90;;;;;;5095859;28;20015;-85
2023/04/12 11:45:00;;;;;;;;;;;13.20;99.90;;;;;;5077183;28;19924;-87
2023/04/12 11:47:25;;;;;;;;;;;12.30;99.90;;;;;;5132556;27;19927;-86
2023/04/12 11:49:52;;;;;;;;;;;13.30;99.90;;;;;;5105066;28;19971;-87
2023/04/12 11:52:21;;;;;;;;;;;13.30;99.90;;;;;;5088471;28;20378;-87
2023/04/12 11:54:55;;;;;;;;;;;13.20;99.90;;;;;;5082589;28;20371;-87
2023/04/12 11:57:21;;;;;;;;;;;13.20;99.90;;;;;;5080491;28;20002;-87
2023/04/12 11:59:47;;;;;;;;;;;13.30;99.90;;;;;;5101946;28;19966;-86
2023/04/12 12:02:15;;;;;;;;;;;13.20;99.90;;;;;;5075472;28;19931;-87
2023/04/12 12:04:44;;;;;;;;;;;13.20;99.90;;;;;;5100435;28;19924;-87
2023/04/12 12:07:11;;;;;;;;;;;13.10;99.90;;;;;;5100948;28;19931;-87
2023/04/12 12:09:37;;;;;;;;;;;13.20;99.90;;;;;;5102026;28;19978;-87
2023/04/12 12:12:04;;;;;;;;;;;13.40;99.90;;;;;;5106939;28;19924;-87
2023/04/12 12:14:32;;;;;;;;;;;13.40;99.90;;;;;;5084640;28;19924;-88
2023/04/12 12:16:58;;;;;;;;;;;12.70;99.90;;;;;;5094358;28;20345;-88
2023/04/12 12:19:36;;;;;;;;;;;13.10;99.90;;;;;;5112448;27;20055;-88
2023/04/12 12:22:14;;;;;;;;;;;13.20;99.90;;;;;;5078207;28;19940;-86
2023/04/12 12:24:52;;;;;;;;;;;13.10;99.90;;;;;;5088061;28;20006;-85
2023/04/12 12:27:22;;;;;;;;;;;12.80;99.90;;;;;;5075167;28;20038;-88
2023/04/12 12:29:48;;;;;;;;;;;12.80;99.90;;;;;;5129666;27;19974;-87
2023/04/12 12:32:18;;;;;;;;;;;12.40;99.90;;;;;;5085478;28;19924;-86
2023/04/12 12:34:54;;;;;;;;;;;12.40;99.90;;;;;;5080852;28;20325;-88
2023/04/12 12:37:22;;;;;;;;;;;12.20;99.90;;;;;;5093053;28;19932;-88
2023/04/12 12:40:06;;;;;;;;;;;12.10;99.90;;;;;;5076661;28;19928;-87
2023/04/12 12:42:37;;;;;;;;;;;12.10;99.90;;;;;;5082279;28;19973;-88
2023/04/12 12:45:10;;;;;;;;;;;12.10;99.90;;;;;;5092960;28;19924;-88
2023/04/12 12:47:54;;;;;;;;;;;12.40;99.90;;;;;;5088351;28;20233;-87
2023/04/12 12:50:25;;;;;;;;;;;12.50;99.90;;;;;;5110021;28;19935;-88
2023/04/12 12:52:51;;;;;;;;;;;12.50;99.90;;;;;;5086174;28;19928;-87
2023/04/12 12:55:17;;;;;;;;;;;12.50;99.90;;;;;;5084508;28;19923;-88
2023/04/12 12:57:43;;;;;;;;;;;12.70;99.90;;;;;;5079706;28;20410;-89
2023/04/12 13:00:09;;;;;;;;;;;12.80;99.90;;;;;;5076060;28;20328;-87
2023/04/12 13:02:36;;;;;;;;;;;12.90;99.90;;;;;;5087677;28;19924;-88
2023/04/12 13:05:02;;;;;;;;;;;13.00;99.90;;;;;;5075221;28;19924;-87
2023/04/12 13:07:28;;;;;;;;;;;13.10;99.90;;;;;;5078375;28;19968;-87
2023/04/12 13:09:56;;;;;;;;;;;13.20;99.90;;;;;;5061422;28;19967;-87
2023/04/12 13:12:21;;;;;;;;;;;13.20;99.90;;;;;;5092091;28;20318;-87
2023/04/12 13:14:47;;;;;;;;;;;13.30;99.90;;;;;;5099894;28;19978;-87
2023/04/12 13:17:13;;;;;;;;;;;13.30;99.90;;;;;;5101590;28;19924;-88
2023/04/12 13:19:39;;;;;;;;;;;13.30;99.90;;;;;;5087182;28;19928;-88
2023/04/12 13:22:06;;;;;;;;;;;13.20;99.90;;;;;;5113630;28;19932;-88
2023/04/12 13:24:33;;;;;;;;;;;13.00;99.90;;;;;;5108210;28;20323;-88
2023/04/12 13:26:59;;;;;;;;;;;12.90;99.90;;;;;;5101538;28;19924;-87
2023/04/12 13:29:24;;;;;;;;;;;12.90;99.90;;;;;;5070349;28;19931;-88
2023/04/12 13:31:50;;;;;;;;;;;12.80;99.90;;;;;;5083863;28;19924;-88
2023/04/12 13:34:16;;;;;;;;;;;12.70;99.90;;;;;;5093692;28;20340;-87
2023/04/12 13:36:44;;;;;;;;;;;12.70;99.90;;;;;;5104540;28;19931;-87
2023/04/12 13:39:12;;;;;;;;;;;12.70;99.90;;;;;;5084534;28;20360;-88
2023/04/12 13:41:38;;;;;;;;;;;12.00;99.90;;;;;;5103089;28;19943;-87
2023/04/12 13:44:04;;;;;;;;;;;12.70;99.90;;;;;;5092840;28;19924;-86
2023/04/12 13:46:30;;;;;;;;;;;12.00;99.90;;;;;;5083786;28;19967;-87
2023/04/12 13:48:58;;;;;;;;;;;12.60;99.90;;;;;;5079859;28;19924;-87
2023/04/12 13:51:27;;;;;;;;;;;13.40;99.90;;;;;;5076244;28;19970;-87
2023/04/12 13:53:53;;;;;;;;;;;12.50;99.90;;;;;;5102057;28;19924;-87
2023/04/12 13:56:19;;;;;;;;;;;12.50;99.90;;;;;;5073091;28;20002;-88
2023/04/12 13:58:45;;;;;;;;;;;12.60;99.90;;;;;;5085588;28;19924;-86
2023/04/12 14:01:12;;;;;;;;;;;12.50;99.90;;;;;;5096487;28;19924;-88
2023/04/12 14:03:38;;;;;;;;;;;12.60;99.90;;;;;;5114888;28;19925;-89
2023/04/12 14:06:06;;;;;;;;;;;11.60;99.90;;;;;;5075156;28;20269;-87
2023/04/12 14:08:34;;;;;;;;;;;12.60;99.90;;;;;;5096855;28;20371;-87
2023/04/12 14:11:06;;;;;;;;;;;12.50;99.90;;;;;;5107656;28;20283;-88
2023/04/12 14:13:31;;;;;;;;;;;12.30;97.60;;;;;;5078480;28;19924;-86
2023/04/12 14:16:06;;;;;;;;;;;12.20;99.90;;;;;;5084984;28;19931;-87
2023/04/12 14:18:39;;;;;;;;;;;11.40;99.90;;;;;;5108031;28;19927;-87
2023/04/12 14:21:05;;;;;;;;;;;12.30;99.90;;;;;;5066162;28;19924;-87
2023/04/12 14:23:31;;;;;;;;;;;12.30;99.90;;;;;;5072638;28;19931;-87
2023/04/12 14:25:59;;;;;;;;;;;12.40;99.90;;;;;;5070788;28;19947;-89
2023/04/12 14:28:29;;;;;;;;;;;12.30;99.90;;;;;;5074194;28;19925;-87